ADDS METAR Data INFO
IDs: Format: Raw Decoded Include TAF

Data at: 1147 UTC 21 Jun 2018

KEYF 211135Z AUTO 21005KT 10SM CLR 25/23 A2982 RMK AO2 T02470232
KEYF 211115Z AUTO 21005KT 7SM CLR 24/23 A2982 RMK AO2 T02420231
KEYF 211055Z AUTO 22004KT 7SM CLR 24/23 A2982 RMK AO2 T02360228
KEYF 211035Z AUTO 20005KT 7SM BR CLR 23/23 A2982 RMK AO2 T02330226
KEYF 211015Z AUTO 18004KT 7SM CLR 23/23 A2982 RMK AO2 T02330225
KEYF 210955Z AUTO 17004KT 7SM SCT070 23/23 A2981 RMK AO2 T02340226
KEYF 210935Z AUTO 00000KT 10SM BKN070 24/23 A2982 RMK AO2 T02370227
KEYF 210915Z AUTO 00000KT 10SM CLR 24/23 A2981 RMK AO2 T02370227
KEYF 210855Z AUTO 00000KT 10SM CLR 24/23 A2981 RMK AO2 T02380228
KEYF 210835Z AUTO 00000KT 10SM CLR 24/23 A2982 RMK AO2 T02390230
KEYF 210815Z AUTO 00000KT 10SM CLR 24/23 A2982 RMK AO2 T02380228
KEYF 210755Z AUTO 00000KT 10SM CLR 24/23 A2981 RMK AO2 T02410228
KEYF 210735Z AUTO 00000KT 10SM CLR 24/23 A2981 RMK AO2 T02410229
KEYF 210715Z AUTO 00000KT 10SM CLR 24/23 A2982 RMK AO2 T02410229
KEYF 210655Z AUTO 00000KT 10SM CLR 24/23 A2982 RMK AO2 T02420229
KEYF 210635Z AUTO 00000KT 10SM CLR 24/23 A2982 RMK AO2 T02440228
KEYF 210615Z AUTO 17003KT 10SM CLR 24/23 A2983 RMK AO2 T02430229
KEYF 210555Z AUTO 00000KT 10SM CLR 25/23 A2983 RMK AO2 T02460227 10289 20244
KEYF 210535Z AUTO 00000KT 10SM CLR 25/23 A2983 RMK AO2 T02490226
KEYF 210515Z AUTO 21004KT 10SM SCT100 25/23 A2983 RMK AO2 T02510227
KEYF 210455Z AUTO 21003KT 10SM BKN110 25/23 A2984 RMK AO2 T02530231
KEYF 210435Z AUTO 23005KT 10SM BKN110 25/23 A2985 RMK AO2 T02550232
KEYF 210415Z AUTO 00000KT 10SM -RA BKN110 25/23 A2986 RMK AO2 LTG DSNT W T02550232
KEYF 210355Z AUTO 25005KT 10SM -RA SCT050 SCT110 26/23 A2987 RMK AO2 T02640229
KEYF 210335Z AUTO 27006KT 10SM CLR 26/23 A2987 RMK AO2 LTG DSNT W T02620232
KEYF 210315Z AUTO 00000KT 10SM CLR 26/23 A2986 RMK AO2 T02640231
KEYF 210255Z AUTO 22005KT 10SM CLR 27/23 A2986 RMK AO2 LTG DSNT W T02660232
KEYF 210235Z AUTO 19006KT 10SM VCTS CLR 27/23 A2985 RMK AO2 LTG DSNT SW T02680232
KEYF 210215Z AUTO 21007KT 10SM CLR 27/23 A2985 RMK AO2 LTG DSNT S AND SW T02680232
KEYF 210155Z AUTO 20006KT 10SM VCTS CLR 27/23 A2983 RMK AO2 LTG DSNT SW T02690234
KEYF 210130Z AUTO 22004KT 10SM CLR 27/24 A2982 RMK AO2 T02720238
KEYF 210110Z AUTO 20005KT 10SM CLR 27/24 A2982 RMK AO2 LTG DSNT SW T02740238
KEYF 210055Z AUTO 20003KT 10SM CLR 28/24 A2983 RMK AO2 LTG DSNT S T02790240
KEYF 210035Z AUTO 00000KT 10SM SCT080 28/24 A2984 RMK AO2 LTG DSNT S T02820242
KEYF 210015Z AUTO 27003KT 10SM SCT080 BKN090 29/24 A2984 RMK AO2 LTG DSNT S T02870245
KEYF 202345Z AUTO 25004KT 10SM SCT037 SCT080 29/24 A2984 RMK AO2 LTG DSNT S AND SW T02920238 10352 20292 403520240
KEYF 202335Z AUTO 24007KT 10SM SCT037 SCT080 30/24 A2985 RMK AO2 LTG DSNT NE THRU S T02960242
KEYF 202315Z AUTO 22006KT 10SM SCT120 30/25 A2983 RMK AO2 LTG DSNT SE T03000252
KEYF 202255Z AUTO 15003KT 10SM SCT120 30/25 A2981 RMK AO2 LTG DSNT NE THRU SE T03030249
KEYF 202235Z AUTO 00000KT 10SM SCT110 30/24 A2981 RMK AO2 LTG DSNT NE AND SE T03050245
KEYF 202215Z AUTO 33004KT 10SM CLR 31/24 A2980 RMK AO2 LTG DSNT SE AND NW T03070241
KEYF 202155Z AUTO 30005KT 10SM CLR 31/23 A2980 RMK AO2 LTG DSNT SE T03120234
KEYF 202135Z AUTO 27005KT 10SM CLR 32/23 A2979 RMK AO2 LTG DSNT N T03160233
KEYF 202115Z AUTO 27005KT 10SM CLR 31/24 A2980 RMK AO2 LTG DSNT E T03120239
KEYF 202055Z AUTO 29008KT 10SM CLR 31/24 A2981 RMK AO2 LTG DSNT E T03140241
KEYF 202035Z AUTO 28009KT 10SM CLR 33/25 A2981 RMK AO2 LTG DSNT N THRU SE T03320247
KEYF 202015Z AUTO 27004KT 10SM CLR 32/24 A2981 RMK AO2 T03250240
KEYF 201955Z AUTO 24004KT 10SM CLR 33/24 A2982 RMK AO2 T03310244
KEYF 201935Z AUTO 28004KT 10SM CLR 34/23 A2983 RMK AO2 LTG DSNT W T03350233
KEYF 201915Z AUTO 27003KT 10SM SCT049 SCT070 34/23 A2983 RMK AO2 LTG DSNT W T03400233
KEYF 201855Z AUTO 27005KT 10SM SCT042 SCT049 BKN070 35/23 A2984 RMK AO2 T03490234
KEYF 201835Z AUTO 31004KT 10SM SCT042 35/24 A2984 RMK AO2 T03460237
KEYF 201815Z AUTO 23004KT 10SM SCT038 34/24 A2984 RMK AO2 T03440237
KEYF 201755Z AUTO 30007KT 10SM SCT040 34/24 A2986 RMK AO2 T03370236 10343 20267
KEYF 201735Z AUTO 00000KT 10SM CLR 33/24 A2986 RMK AO2 T03330237
KEYF 201715Z AUTO 07003KT 10SM SCT037 34/24 A2987 RMK AO2 T03370239
KEYF 201655Z AUTO 31005KT 10SM SCT035 33/24 A2987 RMK AO2 T03320240
KEYF 201635Z AUTO 00000KT 10SM SCT034 33/24 A2988 RMK AO2 T03250237
KEYF 201615Z AUTO 30006KT 10SM SCT032 33/24 A2988 RMK AO2 T03270238
KEYF 201555Z AUTO 00000KT 10SM CLR 32/24 A2988 RMK AO2 T03210238
KEYF 201535Z AUTO 25005KT 10SM CLR 32/24 A2988 RMK AO2 T03210236
KEYF 201515Z AUTO 30003KT 10SM CLR 31/24 A2989 RMK AO2 T03130236
KEYF 201455Z AUTO 35006KT 10SM CLR 31/24 A2989 RMK AO2 T03100244
KEYF 201435Z AUTO 31006KT 10SM CLR 31/24 A2989 RMK AO2 T03070244
KEYF 201415Z AUTO 35005KT 10SM SCT120 30/24 A2988 RMK AO2 T03020245
KEYF 201355Z AUTO 35005KT 10SM SCT120 30/25 A2988 RMK AO2 T02970246
KEYF 201335Z AUTO 31005KT 10SM CLR 29/24 A2988 RMK AO2 T02950244
KEYF 201315Z AUTO 26003KT 10SM CLR 29/25 A2988 RMK AO2 T02920247
KEYF 201255Z AUTO 28003KT 10SM SCT120 29/25 A2988 RMK AO2
KEYF 201235Z AUTO 26005KT 10SM CLR 28/24 A2988 RMK AO2 T02790244
KEYF 201215Z AUTO 22006KT 10SM CLR 27/24 A2987 RMK AO2 T02670243
KEYF 201155Z AUTO 23006KT 10SM CLR 27/24 A2988 RMK AO2 T02690243 10270 20240
KEYF 201135Z AUTO 21004KT 10SM CLR 26/24 A2987 RMK AO2 T02620241
KEYF 201115Z AUTO 21003KT 10SM CLR 26/24 A2987 RMK AO2 T02560237
KEYF 201055Z AUTO 22003KT 10SM CLR 25/23 A2987 RMK AO2 T02510234
KEYF 201035Z AUTO 20005KT 10SM CLR 24/23 A2987 RMK AO2 T02440231
KEYF 201015Z AUTO 20003KT 10SM CLR 24/23 A2987 RMK AO2 T02410229
KEYF 200955Z AUTO 11003KT 10SM CLR 24/23 A2987 RMK AO2 T02450231
KEYF 200935Z AUTO 00000KT 10SM CLR 25/23 A2987 RMK AO2 T02480231
KEYF 200915Z AUTO 00000KT 10SM CLR 25/23 A2987 RMK AO2 T02460231
KEYF 200855Z AUTO 00000KT 10SM CLR 25/23 A2987 RMK AO2 T02510232
KEYF 200835Z AUTO 01004KT 10SM CLR 25/23 A2987 RMK AO2 T02540233
KEYF 200815Z AUTO 00000KT 10SM CLR 26/23 A2987 RMK AO2 T02570234
KEYF 200755Z AUTO 24006KT 10SM CLR 26/24 A2986 RMK AO2 T02590236
KEYF 200730Z AUTO 24007KT 10SM CLR 26/24 A2986 RMK AO2 T02610236
KEYF 200715Z AUTO 23007KT 10SM CLR 26/24 A2986 RMK AO2 T02620236
KEYF 200655Z AUTO 24006KT 10SM CLR 26/24 A2987 RMK AO2 T02640237
KEYF 200635Z AUTO 24006KT 10SM CLR 27/24 A2987 RMK AO2 T02660237
KEYF 200615Z AUTO 24007KT 10SM CLR 27/24 A2988 RMK AO2 T02670237
KEYF 200555Z AUTO 24006KT 10SM CLR 27/24 A2988 RMK AO2 T02690236 10323 20269
KEYF 200535Z AUTO 23007KT 10SM CLR 27/23 A2988 RMK AO2 T02710234
KEYF 200515Z AUTO 24007KT 10SM CLR 27/23 A2988 RMK AO2 T02730231
KEYF 200455Z AUTO 24007KT 10SM CLR 27/23 A2989 RMK AO2 T02740228
KEYF 200435Z AUTO 24006KT 10SM CLR 28/23 A2989 RMK AO2 T02780227
KEYF 200415Z AUTO 22005KT 10SM CLR 28/23 A2989 RMK AO2 T02770228
KEYF 200355Z AUTO 22005KT 10SM CLR 28/23 A2989 RMK AO2 T02790228
KEYF 200335Z AUTO 23006KT 10SM CLR 28/23 A2989 RMK AO2 T02800230
KEYF 200315Z AUTO 23005KT 10SM CLR 28/23 A2988 RMK AO2 T02840232
KEYF 200255Z AUTO 23005KT 10SM CLR 29/24 A2988 RMK AO2 T02850236
KEYF 200235Z AUTO 23004KT 10SM CLR 29/24 A2989 RMK AO2 T02890239
KEYF 200215Z AUTO 22005KT 10SM CLR 29/24 A2989 RMK AO2 T02910242
KEYF 200155Z AUTO 23004KT 10SM SCT075 30/24 A2988 RMK AO2 T02950242
KEYF 200135Z AUTO 22005KT 10SM SCT075 SCT090 30/24 A2988 RMK AO2 T02990241
KEYF 200115Z AUTO 21004KT 10SM SCT075 30/24 A2987 RMK AO2 T03010244
KEYF 200055Z AUTO 21005KT 10SM SCT075 31/24 A2986 RMK AO2 T03060243
KEYF 200035Z AUTO 21004KT 10SM CLR 31/24 A2986 RMK AO2 T03130241
KEYF 200015Z AUTO 21005KT 10SM CLR 32/24 A2985 RMK AO2 T03170243
KEYF 192355Z AUTO 21005KT 10SM CLR 32/24 A2985 RMK AO2 T03240243 10360 20324 403600235